Time;durP1;ratioP1;P1;durP2;ratioP2;P2;SDS_P1;SDS_P2;PMS_P1;PMS_P2;Temp;Humidity;BMP_temperature;BMP_pressure;BME280_temperature;BME280_humidity;BME280_pressure;Samples;Min_cycle;Max_cycle;Signal;HPM_P1;HPM_P2
2021/08/12 00:01:15;;;;;;;;;;;16.70;88.60;;;;;;5048444;28;19913;-69
2021/08/12 00:03:41;;;;;;;;;;;16.70;88.70;;;;;;5048786;28;19916;-69
2021/08/12 00:06:06;;;;;;;;;;;16.60;88.80;;;;;;5050293;28;20325;-69
2021/08/12 00:08:32;;;;;;;;;;;16.60;89.00;;;;;;5050945;28;20388;-69
2021/08/12 00:10:57;;;;;;;;;;;16.60;89.00;;;;;;5048923;28;19916;-69
2021/08/12 00:13:22;;;;;;;;;;;16.60;89.10;;;;;;5050560;28;20383;-69
2021/08/12 00:15:48;;;;;;;;;;;16.60;89.50;;;;;;5050032;28;20287;-69
2021/08/12 00:18:14;;;;;;;;;;;16.60;89.20;;;;;;5050584;28;19974;-70
2021/08/12 00:20:40;;;;;;;;;;;16.50;90.10;;;;;;5049869;28;19917;-69
2021/08/12 00:23:05;;;;;;;;;;;16.50;89.60;;;;;;5050518;28;19904;-69
2021/08/12 00:25:31;;;;;;;;;;;16.50;89.40;;;;;;5049816;28;20011;-69
2021/08/12 00:27:56;;;;;;;;;;;16.50;89.30;;;;;;5049465;28;19915;-69
2021/08/12 00:30:21;;;;;;;;;;;16.50;89.20;;;;;;5050031;28;19991;-69
2021/08/12 00:32:47;;;;;;;;;;;16.50;89.10;;;;;;5050411;28;20316;-69
2021/08/12 00:35:12;;;;;;;;;;;16.50;89.30;;;;;;5049618;28;19913;-69
2021/08/12 00:37:38;;;;;;;;;;;16.40;89.60;;;;;;5050172;28;20371;-69
2021/08/12 00:40:04;;;;;;;;;;;16.40;89.30;;;;;;5049404;28;20019;-69
2021/08/12 00:42:29;;;;;;;;;;;16.40;89.70;;;;;;5050362;28;19912;-69
2021/08/12 00:44:55;;;;;;;;;;;16.40;89.50;;;;;;5048910;28;19947;-69
2021/08/12 00:47:20;;;;;;;;;;;16.40;89.50;;;;;;5050416;28;19909;-69
2021/08/12 00:49:46;;;;;;;;;;;16.30;89.50;;;;;;5050191;28;19912;-69
2021/08/12 00:52:11;;;;;;;;;;;16.30;90.30;;;;;;5050407;28;19909;-69
2021/08/12 00:54:37;;;;;;;;;;;16.30;90.10;;;;;;5048828;28;20272;-69
2021/08/12 00:57:04;;;;;;;;;;;16.30;89.80;;;;;;5050145;28;19909;-69
2021/08/12 00:59:31;;;;;;;;;;;16.30;89.70;;;;;;5049396;28;19948;-69
2021/08/12 01:01:58;;;;;;;;;;;16.30;90.00;;;;;;5049808;28;19911;-71
2021/08/12 01:04:23;;;;;;;;;;;16.20;90.00;;;;;;5047167;28;19963;-72
2021/08/12 01:06:56;;;;;;;;;;;16.30;89.90;;;;;;5050446;28;19952;-72
2021/08/12 01:09:26;;;;;;;;;;;16.30;89.80;;;;;;5056790;28;20280;-72
2021/08/12 01:12:01;;;;;;;;;;;16.20;90.00;;;;;;5050796;28;19952;-76
2021/08/12 01:14:42;;;;;;;;;;;16.30;89.90;;;;;;5051902;28;19971;-77
2021/08/12 01:17:09;;;;;;;;;;;16.20;89.60;;;;;;5061351;28;19954;-76
2021/08/12 01:19:57;;;;;;;;;;;16.20;89.90;;;;;;5053954;28;19923;-69
2021/08/12 01:22:23;;;;;;;;;;;16.20;90.10;;;;;;5051217;28;19913;-69
2021/08/12 01:24:53;;;;;;;;;;;16.10;90.10;;;;;;5060101;28;20297;-70
2021/08/12 01:27:22;;;;;;;;;;;16.10;90.40;;;;;;5053403;28;19904;-69
2021/08/12 01:30:06;;;;;;;;;;;16.10;90.60;;;;;;5053919;28;19940;-69
2021/08/12 01:32:42;;;;;;;;;;;16.00;90.50;;;;;;5052889;28;20018;-69
2021/08/12 01:35:09;;;;;;;;;;;16.00;90.70;;;;;;5050446;28;20371;-71
2021/08/12 01:37:38;;;;;;;;;;;16.00;90.70;;;;;;5052407;28;19979;-75
2021/08/12 01:40:05;;;;;;;;;;;16.00;90.60;;;;;;5052937;28;19905;-76
2021/08/12 01:42:31;;;;;;;;;;;16.00;90.60;;;;;;5053158;28;19909;-76
2021/08/12 01:44:57;;;;;;;;;;;16.00;90.50;;;;;;5052473;28;19928;-76
2021/08/12 01:47:24;;;;;;;;;;;15.90;90.50;;;;;;5060203;28;20003;-77
2021/08/12 01:49:50;;;;;;;;;;;15.90;90.70;;;;;;5053584;28;19904;-76
2021/08/12 01:52:16;;;;;;;;;;;15.90;90.60;;;;;;5052497;28;19954;-76
2021/08/12 01:54:43;;;;;;;;;;;15.90;90.70;;;;;;5052244;28;19981;-76
2021/08/12 01:57:09;;;;;;;;;;;15.90;90.60;;;;;;5052006;28;19987;-76
2021/08/12 01:59:36;;;;;;;;;;;15.80;90.70;;;;;;5053326;28;20042;-76
2021/08/12 02:02:03;;;;;;;;;;;15.80;90.90;;;;;;5053559;28;19911;-76
2021/08/12 02:04:30;;;;;;;;;;;15.80;91.00;;;;;;5051116;28;19935;-76
2021/08/12 02:06:56;;;;;;;;;;;15.70;91.10;;;;;;5053566;28;19912;-76
2021/08/12 02:09:21;;;;;;;;;;;15.70;90.90;;;;;;5052450;28;19905;-76
2021/08/12 02:11:47;;;;;;;;;;;15.70;91.20;;;;;;5053394;28;19904;-76
2021/08/12 02:14:13;;;;;;;;;;;15.70;91.10;;;;;;5050336;28;19987;-76
2021/08/12 02:16:38;;;;;;;;;;;15.70;91.10;;;;;;5053342;28;19937;-76
2021/08/12 02:19:05;;;;;;;;;;;15.70;91.30;;;;;;5053049;28;20454;-76
2021/08/12 02:21:33;;;;;;;;;;;15.70;91.50;;;;;;5052452;28;20291;-76
2021/08/12 02:24:00;;;;;;;;;;;15.60;91.40;;;;;;5050929;28;20363;-76
2021/08/12 02:26:29;;;;;;;;;;;15.60;91.30;;;;;;5051721;28;20102;-76
2021/08/12 02:28:55;;;;;;;;;;;15.60;91.00;;;;;;5053142;28;20015;-69
2021/08/12 02:31:21;;;;;;;;;;;15.60;91.10;;;;;;5051597;28;20068;-69
2021/08/12 02:33:49;;;;;;;;;;;15.60;91.10;;;;;;5041382;28;19969;-69
2021/08/12 02:36:15;;;;;;;;;;;15.60;91.20;;;;;;5050932;28;19920;-69
2021/08/12 02:38:42;;;;;;;;;;;15.60;91.30;;;;;;5052059;28;20378;-69
2021/08/12 02:41:10;;;;;;;;;;;15.60;91.20;;;;;;5059664;28;19904;-69
2021/08/12 02:43:38;;;;;;;;;;;15.50;91.20;;;;;;5050891;28;19954;-68
2021/08/12 02:46:04;;;;;;;;;;;15.60;91.30;;;;;;5051187;28;19909;-69
2021/08/12 02:48:31;;;;;;;;;;;15.50;91.20;;;;;;5050429;28;19920;-69
2021/08/12 02:50:57;;;;;;;;;;;15.50;91.20;;;;;;5051653;28;19939;-69
2021/08/12 02:53:23;;;;;;;;;;;15.50;91.20;;;;;;5051062;28;19920;-69
2021/08/12 02:55:50;;;;;;;;;;;15.50;91.10;;;;;;5051451;28;19917;-68
2021/08/12 02:58:16;;;;;;;;;;;15.40;91.40;;;;;;5051936;28;20356;-69
2021/08/12 03:00:41;;;;;;;;;;;15.50;91.60;;;;;;5052199;28;19905;-69
2021/08/12 03:03:08;;;;;;;;;;;15.40;91.30;;;;;;5051399;28;19913;-69
2021/08/12 03:05:35;;;;;;;;;;;15.40;91.50;;;;;;5050675;28;19920;-68
2021/08/12 03:08:01;;;;;;;;;;;15.40;91.40;;;;;;5051529;28;19995;-69
2021/08/12 03:10:28;;;;;;;;;;;15.40;91.40;;;;;;5051910;28;19905;-69
2021/08/12 03:12:54;;;;;;;;;;;15.40;91.50;;;;;;5051123;28;19962;-69
2021/08/12 03:15:20;;;;;;;;;;;15.40;91.50;;;;;;5050722;28;19916;-69
2021/08/12 03:17:46;;;;;;;;;;;15.40;91.40;;;;;;5049754;28;19909;-68
2021/08/12 03:20:12;;;;;;;;;;;15.40;91.60;;;;;;5051864;28;19915;-68
2021/08/12 03:22:37;;;;;;;;;;;15.30;91.30;;;;;;5058338;28;19911;-69
2021/08/12 03:25:03;;;;;;;;;;;15.30;91.60;;;;;;5050539;28;19987;-69
2021/08/12 03:27:28;;;;;;;;;;;15.30;91.50;;;;;;5051125;28;20381;-69
2021/08/12 03:29:54;;;;;;;;;;;15.30;91.30;;;;;;5051987;28;20335;-69
2021/08/12 03:32:20;;;;;;;;;;;15.30;91.40;;;;;;5051691;28;20312;-72
2021/08/12 03:34:46;;;;;;;;;;;15.30;91.30;;;;;;5049760;28;20023;-71
2021/08/12 03:37:12;;;;;;;;;;;15.20;91.30;;;;;;5049172;28;19978;-71
2021/08/12 03:39:38;;;;;;;;;;;15.20;91.50;;;;;;5050886;28;19966;-72
2021/08/12 03:42:03;;;;;;;;;;;15.20;91.50;;;;;;5052065;28;19904;-72
2021/08/12 03:44:29;;;;;;;;;;;15.10;91.30;;;;;;5050399;28;19919;-72
2021/08/12 03:46:54;;;;;;;;;;;15.20;91.50;;;;;;5051865;28;19912;-72
2021/08/12 03:49:20;;;;;;;;;;;15.20;91.50;;;;;;5051512;28;19905;-70
2021/08/12 03:51:45;;;;;;;;;;;15.20;91.30;;;;;;5049702;28;19916;-70
2021/08/12 03:54:11;;;;;;;;;;;15.30;91.40;;;;;;5050087;28;19920;-72
2021/08/12 03:56:36;;;;;;;;;;;15.30;91.40;;;;;;5049897;28;19908;-72
2021/08/12 03:59:02;;;;;;;;;;;15.30;91.40;;;;;;5051715;28;19905;-72
2021/08/12 04:01:29;;;;;;;;;;;15.20;91.40;;;;;;5050313;28;20031;-72
2021/08/12 04:03:55;;;;;;;;;;;15.20;91.30;;;;;;5049702;28;19909;-70
2021/08/12 04:06:20;;;;;;;;;;;15.20;91.20;;;;;;5050938;28;19911;-70
2021/08/12 04:08:45;;;;;;;;;;;15.10;91.30;;;;;;5050427;28;19905;-70
2021/08/12 04:11:11;;;;;;;;;;;15.20;91.30;;;;;;5050849;28;19911;-70
2021/08/12 04:13:36;;;;;;;;;;;15.30;91.50;;;;;;5050194;28;19915;-71
2021/08/12 04:16:02;;;;;;;;;;;15.40;91.40;;;;;;5050327;28;20003;-70
2021/08/12 04:18:28;;;;;;;;;;;15.50;91.20;;;;;;5051023;28;19921;-72
2021/08/12 04:20:53;;;;;;;;;;;15.60;91.10;;;;;;5050689;28;19916;-72
2021/08/12 04:23:18;;;;;;;;;;;15.80;91.00;;;;;;5049363;28;19915;-71
2021/08/12 04:25:45;;;;;;;;;;;15.80;90.90;;;;;;5050194;28;19917;-72
2021/08/12 04:28:11;;;;;;;;;;;15.90;90.80;;;;;;5048050;28;19915;-73
2021/08/12 04:30:36;;;;;;;;;;;16.10;90.80;;;;;;5050906;28;19908;-69
2021/08/12 04:33:02;;;;;;;;;;;16.20;90.70;;;;;;5048134;28;19970;-69
2021/08/12 04:35:27;;;;;;;;;;;16.30;90.60;;;;;;5049156;28;19916;-69
2021/08/12 04:37:52;;;;;;;;;;;16.40;90.30;;;;;;5050045;28;19904;-69
2021/08/12 04:40:19;;;;;;;;;;;16.50;90.10;;;;;;5050436;28;19908;-70
2021/08/12 04:42:47;;;;;;;;;;;16.60;90.10;;;;;;5048600;28;20007;-70
2021/08/12 04:45:13;;;;;;;;;;;16.60;89.90;;;;;;5056168;28;19913;-70
2021/08/12 04:47:39;;;;;;;;;;;16.70;89.60;;;;;;5056773;28;19959;-71
2021/08/12 04:50:05;;;;;;;;;;;16.70;89.50;;;;;;5050447;28;19915;-70
2021/08/12 04:52:30;;;;;;;;;;;16.70;89.60;;;;;;5056845;28;20012;-70
2021/08/12 04:54:56;;;;;;;;;;;16.80;89.40;;;;;;5047884;28;19935;-70
2021/08/12 04:57:21;;;;;;;;;;;16.80;89.30;;;;;;5047777;28;19988;-70
2021/08/12 04:59:47;;;;;;;;;;;16.80;89.20;;;;;;5050407;28;19930;-70
2021/08/12 05:02:12;;;;;;;;;;;16.90;89.20;;;;;;5049781;28;20280;-71
2021/08/12 05:04:37;;;;;;;;;;;16.90;89.10;;;;;;5048961;28;19935;-71
2021/08/12 05:07:03;;;;;;;;;;;17.00;88.70;;;;;;5050101;28;20378;-70
2021/08/12 05:09:28;;;;;;;;;;;17.00;88.60;;;;;;5049957;28;19924;-70
2021/08/12 05:11:54;;;;;;;;;;;17.10;88.30;;;;;;5048618;28;20352;-70
2021/08/12 05:14:19;;;;;;;;;;;17.30;87.80;;;;;;5048147;28;19995;-71
2021/08/12 05:16:45;;;;;;;;;;;17.40;87.30;;;;;;5049365;28;20325;-70
2021/08/12 05:19:10;;;;;;;;;;;17.70;86.60;;;;;;5049566;28;19912;-70
2021/08/12 05:21:35;;;;;;;;;;;17.90;85.70;;;;;;5050191;28;19944;-71
2021/08/12 05:24:01;;;;;;;;;;;17.90;85.20;;;;;;5047230;28;20326;-71
2021/08/12 05:26:26;;;;;;;;;;;17.90;85.10;;;;;;5048649;28;19915;-70
2021/08/12 05:28:53;;;;;;;;;;;17.90;85.00;;;;;;5049776;28;19911;-71
2021/08/12 05:31:18;;;;;;;;;;;18.10;84.40;;;;;;5049494;28;19913;-71
2021/08/12 05:33:43;;;;;;;;;;;18.40;84.40;;;;;;5047768;28;19909;-70
2021/08/12 05:36:09;;;;;;;;;;;18.80;84.30;;;;;;5047637;28;19916;-70
2021/08/12 05:38:34;;;;;;;;;;;19.20;82.90;;;;;;5048196;28;19908;-70
2021/08/12 05:41:00;;;;;;;;;;;19.30;82.10;;;;;;5049110;28;19995;-70
2021/08/12 05:43:26;;;;;;;;;;;19.40;81.60;;;;;;5048586;28;20334;-70
2021/08/12 05:45:52;;;;;;;;;;;19.50;81.50;;;;;;5047836;28;20322;-70
2021/08/12 05:48:19;;;;;;;;;;;19.40;81.20;;;;;;5048570;28;19995;-70
2021/08/12 05:50:44;;;;;;;;;;;19.50;81.10;;;;;;5049752;28;19905;-70
2021/08/12 05:53:11;;;;;;;;;;;19.60;80.40;;;;;;5049556;28;20098;-73
2021/08/12 05:55:36;;;;;;;;;;;19.60;80.50;;;;;;5047972;28;19923;-73
2021/08/12 05:58:02;;;;;;;;;;;19.60;80.30;;;;;;5050088;28;20279;-73
2021/08/12 06:00:27;;;;;;;;;;;19.70;80.40;;;;;;5053190;28;19908;-73
2021/08/12 06:02:53;;;;;;;;;;;19.80;79.90;;;;;;5051906;28;19939;-73
2021/08/12 06:05:18;;;;;;;;;;;19.80;79.80;;;;;;5052026;28;19912;-70
2021/08/12 06:07:43;;;;;;;;;;;19.80;79.60;;;;;;5051729;28;20271;-70
2021/08/12 06:10:09;;;;;;;;;;;19.70;79.70;;;;;;5053076;28;19992;-70
2021/08/12 06:12:34;;;;;;;;;;;19.80;79.50;;;;;;5052425;28;19911;-70
2021/08/12 06:15:00;;;;;;;;;;;19.70;79.10;;;;;;5050733;28;20322;-71
2021/08/12 06:17:25;;;;;;;;;;;19.70;79.50;;;;;;5051625;28;19909;-70
2021/08/12 06:19:51;;;;;;;;;;;19.80;79.50;;;;;;5052984;28;20363;-70
2021/08/12 06:22:16;;;;;;;;;;;19.90;78.90;;;;;;5052902;28;20372;-70
2021/08/12 06:24:41;;;;;;;;;;;19.90;78.50;;;;;;5051627;28;19999;-70
2021/08/12 06:27:07;;;;;;;;;;;19.90;78.70;;;;;;5051515;28;19916;-70
2021/08/12 06:29:32;;;;;;;;;;;20.00;78.70;;;;;;5051781;28;19931;-70
2021/08/12 06:31:58;;;;;;;;;;;20.00;78.30;;;;;;5051548;28;19904;-71
2021/08/12 06:34:23;;;;;;;;;;;20.10;78.50;;;;;;5050888;28;20364;-71
2021/08/12 06:36:49;;;;;;;;;;;20.30;77.80;;;;;;5051360;28;19920;-70
2021/08/12 06:39:14;;;;;;;;;;;20.40;77.70;;;;;;5052687;28;19916;-70
2021/08/12 06:41:42;;;;;;;;;;;20.60;77.20;;;;;;5052741;28;19908;-70
2021/08/12 06:44:09;;;;;;;;;;;20.70;76.60;;;;;;5050577;28;19913;-71
2021/08/12 06:46:34;;;;;;;;;;;20.70;75.70;;;;;;5051711;28;20505;-71
2021/08/12 06:48:59;;;;;;;;;;;20.60;75.50;;;;;;5052483;28;19997;-71
2021/08/12 06:51:25;;;;;;;;;;;20.60;76.00;;;;;;5052360;28;20502;-70
2021/08/12 06:53:50;;;;;;;;;;;20.60;76.00;;;;;;5051096;28;20046;-70
2021/08/12 06:56:16;;;;;;;;;;;20.70;75.90;;;;;;5051387;28;19912;-70
2021/08/12 06:58:41;;;;;;;;;;;20.80;75.60;;;;;;5051833;28;19915;-70
2021/08/12 07:01:06;;;;;;;;;;;20.80;75.10;;;;;;5050823;28;19904;-70
2021/08/12 07:03:32;;;;;;;;;;;20.90;74.40;;;;;;5052089;28;19908;-70
2021/08/12 07:05:57;;;;;;;;;;;21.00;74.00;;;;;;5051161;28;19909;-71
2021/08/12 07:08:23;;;;;;;;;;;21.10;73.80;;;;;;5051206;28;20110;-71
2021/08/12 07:10:48;;;;;;;;;;;21.30;74.00;;;;;;5049720;28;19927;-71
2021/08/12 07:13:13;;;;;;;;;;;21.40;74.40;;;;;;5051897;28;20331;-70
2021/08/12 07:15:39;;;;;;;;;;;21.40;74.00;;;;;;5051035;28;20012;-71
2021/08/12 07:18:04;;;;;;;;;;;21.50;73.90;;;;;;5050441;28;19916;-71
2021/08/12 07:20:34;;;;;;;;;;;21.50;74.20;;;;;;5051440;28;19909;-70
2021/08/12 07:22:59;;;;;;;;;;;21.60;74.00;;;;;;5050431;28;19954;-71
2021/08/12 07:25:25;;;;;;;;;;;21.70;74.10;;;;;;5049283;28;20456;-70
2021/08/12 07:27:50;;;;;;;;;;;21.80;74.00;;;;;;5050624;28;19935;-70
2021/08/12 07:30:16;;;;;;;;;;;21.90;73.50;;;;;;5051324;28;19962;-73
2021/08/12 07:32:42;;;;;;;;;;;22.10;73.80;;;;;;5051708;28;19905;-73
2021/08/12 07:35:08;;;;;;;;;;;22.20;73.60;;;;;;5048757;28;19917;-73
2021/08/12 07:37:33;;;;;;;;;;;22.20;72.50;;;;;;5050701;28;19999;-74
2021/08/12 07:39:59;;;;;;;;;;;22.30;73.20;;;;;;5050542;28;20000;-74
2021/08/12 07:42:24;;;;;;;;;;;22.30;72.80;;;;;;5051436;28;19952;-73
2021/08/12 07:44:50;;;;;;;;;;;22.30;73.10;;;;;;5047989;28;19919;-73
2021/08/12 07:47:15;;;;;;;;;;;22.40;73.20;;;;;;5049961;28;20007;-74
2021/08/12 07:49:41;;;;;;;;;;;22.60;73.50;;;;;;5051302;28;19915;-74
2021/08/12 07:52:06;;;;;;;;;;;22.80;72.80;;;;;;5051200;28;19955;-74
2021/08/12 07:54:32;;;;;;;;;;;22.90;72.90;;;;;;5049607;28;20239;-73
2021/08/12 07:56:57;;;;;;;;;;;23.10;72.70;;;;;;5051235;28;19908;-75
2021/08/12 07:59:23;;;;;;;;;;;23.30;72.20;;;;;;5050045;28;19960;-74
2021/08/12 08:01:48;;;;;;;;;;;23.40;71.70;;;;;;5050740;28;19933;-73
2021/08/12 08:04:13;;;;;;;;;;;23.50;71.80;;;;;;5049429;28;19991;-74
2021/08/12 08:06:39;;;;;;;;;;;23.70;71.50;;;;;;5050835;28;19909;-74
2021/08/12 08:09:04;;;;;;;;;;;23.70;71.30;;;;;;5051003;28;19909;-74
2021/08/12 08:11:31;;;;;;;;;;;23.80;71.00;;;;;;5050411;28;19908;-74
2021/08/12 08:13:56;;;;;;;;;;;23.80;70.90;;;;;;5049215;28;19905;-74
2021/08/12 08:16:22;;;;;;;;;;;23.80;70.50;;;;;;5048537;28;20292;-75
2021/08/12 08:18:48;;;;;;;;;;;23.70;69.50;;;;;;5048829;28;20272;-74
2021/08/12 08:21:14;;;;;;;;;;;23.80;69.70;;;;;;5049871;28;19932;-74
2021/08/12 08:23:39;;;;;;;;;;;23.80;69.80;;;;;;5050739;28;19955;-74
2021/08/12 08:26:05;;;;;;;;;;;23.90;70.10;;;;;;5049431;28;19912;-74
2021/08/12 08:28:30;;;;;;;;;;;24.10;69.40;;;;;;5050689;28;19909;-74
2021/08/12 08:30:56;;;;;;;;;;;24.20;69.00;;;;;;5050258;28;19904;-74
2021/08/12 08:33:21;;;;;;;;;;;24.20;69.00;;;;;;5049035;28;19915;-74
2021/08/12 08:35:47;;;;;;;;;;;24.20;68.90;;;;;;5049039;28;19923;-74
2021/08/12 08:38:12;;;;;;;;;;;24.20;68.50;;;;;;5050376;28;19905;-76
2021/08/12 08:40:38;;;;;;;;;;;24.30;68.80;;;;;;5050181;28;20264;-76
2021/08/12 08:43:03;;;;;;;;;;;24.40;68.30;;;;;;5049278;28;19931;-77
2021/08/12 08:45:29;;;;;;;;;;;24.50;68.60;;;;;;5049395;28;20382;-77
2021/08/12 08:47:56;;;;;;;;;;;24.70;68.00;;;;;;5050211;28;19908;-76
2021/08/12 08:50:25;;;;;;;;;;;24.80;67.60;;;;;;5050103;28;19911;-76
2021/08/12 08:52:51;;;;;;;;;;;24.90;67.70;;;;;;5048704;28;19919;-76
2021/08/12 08:55:20;;;;;;;;;;;25.10;67.60;;;;;;5048653;28;19912;-76
2021/08/12 08:57:50;;;;;;;;;;;25.40;67.00;;;;;;5049654;28;20383;-76
2021/08/12 09:00:17;;;;;;;;;;;25.70;66.40;;;;;;5049876;28;20266;-77
2021/08/12 09:02:46;;;;;;;;;;;25.90;66.20;;;;;;5047778;28;19913;-76
2021/08/12 09:05:12;;;;;;;;;;;25.90;64.70;;;;;;5049388;28;19989;-76
2021/08/12 09:07:38;;;;;;;;;;;25.90;64.00;;;;;;5049779;28;19915;-76
2021/08/12 09:10:03;;;;;;;;;;;25.80;63.80;;;;;;5049052;28;20275;-76
2021/08/12 09:12:30;;;;;;;;;;;25.90;64.80;;;;;;5049514;28;19913;-69
2021/08/12 09:15:03;;;;;;;;;;;26.00;65.00;;;;;;5049138;28;19938;-69
2021/08/12 09:17:30;;;;;;;;;;;26.20;64.90;;;;;;5049425;28;19912;-68
2021/08/12 09:19:56;;;;;;;;;;;26.20;64.70;;;;;;5047889;28;19920;-76
2021/08/12 09:22:21;;;;;;;;;;;26.30;64.20;;;;;;5049359;28;19908;-76
2021/08/12 09:24:50;;;;;;;;;;;26.50;63.70;;;;;;5048109;28;20350;-76
2021/08/12 09:27:19;;;;;;;;;;;26.50;63.90;;;;;;5047617;28;19909;-76
2021/08/12 09:29:45;;;;;;;;;;;26.50;62.70;;;;;;5049906;28;19908;-76
2021/08/12 09:32:10;;;;;;;;;;;26.50;61.90;;;;;;5049439;28;19928;-76
2021/08/12 09:34:40;;;;;;;;;;;26.50;62.80;;;;;;5050853;28;19951;-76
2021/08/12 09:37:06;;;;;;;;;;;26.60;62.20;;;;;;5053475;28;19918;-76
2021/08/12 09:39:32;;;;;;;;;;;26.70;61.70;;;;;;5053164;28;19999;-76
2021/08/12 09:41:57;;;;;;;;;;;26.80;61.40;;;;;;5053440;28;19909;-76
2021/08/12 09:44:32;;;;;;;;;;;26.80;61.60;;;;;;5051642;28;19912;-76
2021/08/12 09:46:58;;;;;;;;;;;26.80;60.50;;;;;;5051754;28;19909;-76
2021/08/12 09:49:24;;;;;;;;;;;27.00;61.10;;;;;;5053267;28;20346;-76
2021/08/12 09:51:49;;;;;;;;;;;27.20;61.50;;;;;;5052350;28;19935;-76
2021/08/12 09:54:26;;;;;;;;;;;27.40;59.60;;;;;;5051313;28;20422;-76
2021/08/12 09:56:52;;;;;;;;;;;27.60;60.30;;;;;;5053145;28;19952;-76
2021/08/12 09:59:17;;;;;;;;;;;27.70;59.50;;;;;;5052397;28;19948;-76
2021/08/12 10:01:43;;;;;;;;;;;27.70;59.60;;;;;;5051922;28;19912;-76
2021/08/12 10:04:24;;;;;;;;;;;27.70;59.70;;;;;;5050684;28;19963;-76
2021/08/12 10:06:49;;;;;;;;;;;27.80;59.50;;;;;;5059813;28;19996;-76
2021/08/12 10:09:16;;;;;;;;;;;27.80;59.30;;;;;;5052912;28;20012;-76
2021/08/12 10:11:42;;;;;;;;;;;27.80;59.00;;;;;;5051905;28;20160;-76
2021/08/12 10:14:08;;;;;;;;;;;27.80;58.50;;;;;;5051175;28;19940;-76
2021/08/12 10:16:34;;;;;;;;;;;27.80;57.80;;;;;;5052146;28;19917;-76
2021/08/12 10:19:00;;;;;;;;;;;27.90;58.50;;;;;;5052333;28;19913;-74
2021/08/12 10:21:26;;;;;;;;;;;27.90;58.70;;;;;;5052806;28;19912;-74
2021/08/12 10:23:59;;;;;;;;;;;28.00;57.90;;;;;;5050728;28;19959;-74
2021/08/12 10:26:25;;;;;;;;;;;28.00;58.60;;;;;;5052683;28;20303;-74
2021/08/12 10:28:52;;;;;;;;;;;28.10;58.50;;;;;;5051391;28;19988;-74
2021/08/12 10:31:24;;;;;;;;;;;28.10;57.90;;;;;;5052488;28;19912;-74
2021/08/12 10:33:50;;;;;;;;;;;28.30;58.30;;;;;;5057419;28;19908;-74
2021/08/12 10:36:16;;;;;;;;;;;28.50;57.90;;;;;;5052473;28;19917;-74
2021/08/12 10:38:41;;;;;;;;;;;28.60;56.20;;;;;;5052691;28;20030;-75
2021/08/12 10:41:08;;;;;;;;;;;28.60;56.90;;;;;;5052486;28;20445;-75
2021/08/12 10:43:33;;;;;;;;;;;28.70;56.90;;;;;;5050888;28;19919;-75
2021/08/12 10:46:00;;;;;;;;;;;28.70;57.10;;;;;;5050506;28;19999;-74
2021/08/12 10:48:28;;;;;;;;;;;28.80;56.20;;;;;;5050696;28;20397;-74
2021/08/12 10:51:00;;;;;;;;;;;28.70;56.00;;;;;;5051750;28;20071;-74
2021/08/12 10:53:26;;;;;;;;;;;28.70;55.30;;;;;;5051312;28;19909;-74
2021/08/12 10:56:05;;;;;;;;;;;28.80;56.00;;;;;;5051340;28;19913;-69
2021/08/12 10:58:31;;;;;;;;;;;28.90;55.00;;;;;;5051253;28;19908;-69
2021/08/12 11:00:57;;;;;;;;;;;29.00;55.60;;;;;;5050282;28;19911;-69
2021/08/12 11:03:32;;;;;;;;;;;29.10;55.20;;;;;;5050344;28;19905;-69
2021/08/12 11:06:16;;;;;;;;;;;29.10;55.60;;;;;;5058364;28;19908;-69
2021/08/12 11:08:51;;;;;;;;;;;29.20;55.50;;;;;;5051767;28;20296;-69
2021/08/12 11:11:23;;;;;;;;;;;29.20;55.30;;;;;;5051854;28;20371;-69
2021/08/12 11:13:50;;;;;;;;;;;29.30;54.90;;;;;;5050311;28;19905;-69
2021/08/12 11:16:15;;;;;;;;;;;29.30;55.30;;;;;;5051080;28;20347;-70
2021/08/12 11:18:51;;;;;;;;;;;29.60;55.60;;;;;;5051335;28;19970;-74
2021/08/12 11:21:32;;;;;;;;;;;29.70;53.70;;;;;;5051288;28;20471;-74
2021/08/12 11:24:08;;;;;;;;;;;29.70;53.80;;;;;;5057425;28;20280;-75
2021/08/12 11:26:46;;;;;;;;;;;29.70;54.50;;;;;;5051691;28;19987;-74
2021/08/12 11:31:49;;;;;;;;;;;29.90;53.20;;;;;;5051124;28;19905;-74
2021/08/12 11:34:15;;;;;;;;;;;30.00;53.80;;;;;;5049627;28;19931;-75
2021/08/12 11:37:00;;;;;;;;;;;30.10;53.60;;;;;;5050980;28;19931;-74
2021/08/12 11:39:26;;;;;;;;;;;30.20;51.70;;;;;;5049407;28;20719;-74
2021/08/12 11:41:52;;;;;;;;;;;30.20;51.70;;;;;;5051746;28;19950;-74
2021/08/12 11:44:17;;;;;;;;;;;30.20;52.60;;;;;;5048329;28;19909;-75
2021/08/12 11:46:43;;;;;;;;;;;30.40;53.40;;;;;;5051476;28;19911;-74
2021/08/12 11:49:13;;;;;;;;;;;30.60;51.10;;;;;;5051007;28;19909;-74
2021/08/12 11:51:39;;;;;;;;;;;30.60;50.50;;;;;;5050681;28;19908;-74
2021/08/12 11:54:04;;;;;;;;;;;30.50;50.40;;;;;;5048229;28;19917;-71
2021/08/12 11:56:32;;;;;;;;;;;30.40;50.20;;;;;;5049020;28;20443;-70
2021/08/12 11:58:59;;;;;;;;;;;30.20;50.60;;;;;;5048738;28;19912;-71
2021/08/12 12:01:25;;;;;;;;;;;30.20;50.10;;;;;;5050506;28;20099;-71
2021/08/12 12:04:01;;;;;;;;;;;30.10;50.90;;;;;;5048629;28;20364;-70
2021/08/12 12:06:30;;;;;;;;;;;30.00;50.80;;;;;;5051018;28;19908;-70
2021/08/12 12:08:55;;;;;;;;;;;30.10;50.50;;;;;;5048605;28;19921;-71
2021/08/12 12:11:21;;;;;;;;;;;30.10;51.10;;;;;;5049447;28;19959;-71
2021/08/12 12:13:46;;;;;;;;;;;30.20;50.60;;;;;;5050051;28;19915;-71
2021/08/12 12:16:12;;;;;;;;;;;30.10;50.10;;;;;;5050038;28;19910;-71
2021/08/12 12:18:38;;;;;;;;;;;30.20;50.20;;;;;;5049278;28;19916;-71
2021/08/12 12:21:04;;;;;;;;;;;30.20;49.90;;;;;;5047838;28;19943;-71
2021/08/12 12:23:29;;;;;;;;;;;30.10;49.40;;;;;;5048483;28;19913;-71
2021/08/12 12:25:55;;;;;;;;;;;30.20;50.50;;;;;;5049242;28;19913;-70
2021/08/12 12:28:21;;;;;;;;;;;30.40;50.10;;;;;;5049308;28;19919;-77
2021/08/12 12:30:46;;;;;;;;;;;30.60;48.80;;;;;;5050191;28;19940;-77
2021/08/12 12:33:13;;;;;;;;;;;30.60;49.90;;;;;;5048653;28;19908;-77
2021/08/12 12:35:40;;;;;;;;;;;30.70;48.90;;;;;;5048696;28;19920;-77
2021/08/12 12:38:07;;;;;;;;;;;30.70;48.80;;;;;;5049854;28;20333;-77
2021/08/12 12:40:34;;;;;;;;;;;30.70;48.70;;;;;;5056601;28;20251;-77
2021/08/12 12:43:00;;;;;;;;;;;30.80;49.20;;;;;;5049673;28;19958;-77
2021/08/12 12:45:25;;;;;;;;;;;30.80;49.10;;;;;;5047545;28;20302;-77
2021/08/12 12:47:51;;;;;;;;;;;30.70;49.10;;;;;;5049629;28;19905;-77
2021/08/12 12:50:20;;;;;;;;;;;30.70;48.80;;;;;;5049884;28;20488;-77
2021/08/12 12:53:00;;;;;;;;;;;30.60;50.00;;;;;;5050249;28;19956;-71
2021/08/12 12:55:32;;;;;;;;;;;30.70;49.20;;;;;;5048232;28;19916;-71
2021/08/12 12:58:02;;;;;;;;;;;30.80;49.00;;;;;;5056575;28;19948;-71
2021/08/12 13:00:29;;;;;;;;;;;30.80;48.10;;;;;;5050007;28;19908;-71
2021/08/12 13:02:55;;;;;;;;;;;30.80;48.00;;;;;;5049538;28;19912;-71
2021/08/12 13:05:21;;;;;;;;;;;30.80;47.80;;;;;;5047808;28;19909;-77
2021/08/12 13:07:47;;;;;;;;;;;30.90;48.50;;;;;;5052306;28;19909;-77
2021/08/12 13:10:20;;;;;;;;;;;31.00;47.90;;;;;;5053175;28;19912;-77
2021/08/12 13:12:55;;;;;;;;;;;30.90;47.20;;;;;;5044511;28;19912;-77
2021/08/12 13:15:20;;;;;;;;;;;30.70;47.70;;;;;;5051342;28;19986;-77
2021/08/12 13:17:59;;;;;;;;;;;30.60;47.30;;;;;;5053134;28;19948;-77
2021/08/12 13:20:25;;;;;;;;;;;30.50;48.10;;;;;;5052131;28;19905;-77
2021/08/12 13:22:51;;;;;;;;;;;30.50;48.10;;;;;;5051584;28;19920;-77
2021/08/12 13:25:21;;;;;;;;;;;30.70;48.60;;;;;;5051711;28;19909;-77
2021/08/12 13:27:54;;;;;;;;;;;30.80;48.60;;;;;;5054063;28;19904;-77
2021/08/12 13:30:45;;;;;;;;;;;30.80;48.10;;;;;;5053452;28;19991;-77
2021/08/12 13:33:27;;;;;;;;;;;30.80;46.70;;;;;;5050216;28;19909;-77
2021/08/12 13:35:52;;;;;;;;;;;30.80;47.80;;;;;;5051704;28;19913;-77
2021/08/12 13:38:18;;;;;;;;;;;30.80;48.00;;;;;;5053270;28;20275;-77
2021/08/12 13:40:44;;;;;;;;;;;30.90;48.00;;;;;;5053859;28;19950;-77
2021/08/12 13:43:09;;;;;;;;;;;31.10;47.30;;;;;;5053550;28;19954;-77
2021/08/12 13:45:35;;;;;;;;;;;31.20;47.60;;;;;;5051347;28;19959;-77
2021/08/12 13:48:00;;;;;;;;;;;31.40;47.10;;;;;;5053626;28;19909;-77
2021/08/12 13:50:26;;;;;;;;;;;31.20;47.30;;;;;;5053224;28;19909;-77
2021/08/12 13:52:51;;;;;;;;;;;31.20;47.20;;;;;;5053510;28;19908;-77
2021/08/12 13:55:17;;;;;;;;;;;31.10;46.80;;;;;;5052148;28;19917;-77
2021/08/12 13:57:42;;;;;;;;;;;31.10;46.60;;;;;;5051519;28;19908;-77
2021/08/12 14:00:08;;;;;;;;;;;31.10;46.80;;;;;;5053272;28;19915;-77
2021/08/12 14:02:33;;;;;;;;;;;31.10;47.00;;;;;;5052213;28;19908;-77
2021/08/12 14:04:59;;;;;;;;;;;31.10;46.50;;;;;;5052237;28;19938;-77
2021/08/12 14:07:24;;;;;;;;;;;31.00;46.80;;;;;;5052766;28;20348;-77
2021/08/12 14:09:50;;;;;;;;;;;31.00;46.80;;;;;;5053207;28;19908;-77
2021/08/12 14:12:16;;;;;;;;;;;30.80;46.60;;;;;;5051708;28;19909;-77
2021/08/12 14:14:41;;;;;;;;;;;30.60;47.00;;;;;;5052421;28;19927;-77
2021/08/12 14:17:07;;;;;;;;;;;30.50;47.00;;;;;;5050711;28;20364;-77